Time;durP1;ratioP1;P1;durP2;ratioP2;P2;SDS_P1;SDS_P2;PMS_P1;PMS_P2;Temp;Humidity;BMP_temperature;BMP_pressure;BME280_temperature;BME280_humidity;BME280_pressure;Samples;Min_cycle;Max_cycle;Signal;HPM_P1;HPM_P2
2022/08/29 00:01:31;;;;;;;37.30;13.70;;;;;;;23.12;70.04;99100.11;25082;1316;3026666;-63
2022/08/29 00:04:01;;;;;;;39.60;14.80;;;;;;;22.93;70.51;99098.61;24994;1317;3026625;-64
2022/08/29 00:06:30;;;;;;;40.60;15.30;;;;;;;22.75;70.78;99105.52;24977;1317;3026869;-65
2022/08/29 00:08:59;;;;;;;48.50;16.00;;;;;;;22.54;71.63;99112.70;25094;1318;3026778;-64
2022/08/29 00:11:29;;;;;;;30.90;10.70;;;;;;;22.42;71.91;99113.95;25039;1317;3026558;-62
2022/08/29 00:13:58;;;;;;;43.10;13.00;;;;;;;22.80;71.08;99112.16;25026;1315;3026203;-64
2022/08/29 00:16:28;;;;;;;48.90;14.30;;;;;;;23.20;69.60;99105.26;25032;1315;3055405;-65
2022/08/29 00:18:57;;;;;;;34.90;13.90;;;;;;;23.16;69.13;99108.63;25072;1316;3026684;-65
2022/08/29 00:21:26;;;;;;;37.90;13.70;;;;;;;23.01;69.63;99107.35;25029;1317;3026517;-62
2022/08/29 00:23:55;;;;;;;43.50;16.60;;;;;;;22.79;70.08;99107.16;25109;1315;3055106;-62
2022/08/29 00:26:24;;;;;;;44.40;15.30;;;;;;;22.63;70.78;99108.92;25042;1318;3026783;-64
2022/08/29 00:28:53;;;;;;;45.40;17.80;;;;;;;22.53;71.78;99111.39;25068;1318;3049814;-66
2022/08/29 00:31:22;;;;;;;40.40;14.10;;;;;;;22.45;71.76;99110.88;25017;1317;3026895;-66
2022/08/29 00:33:51;;;;;;;54.90;17.50;;;;;;;22.92;71.82;99115.21;25048;1317;3058093;-63
2022/08/29 00:36:21;;;;;;;56.30;17.40;;;;;;;23.34;70.19;99112.20;25017;1318;3026919;-61
2022/08/29 00:38:50;;;;;;;55.90;19.00;;;;;;;23.31;70.12;99113.88;25007;1317;3054812;-62
2022/08/29 00:41:19;;;;;;;57.70;17.50;;;;;;;23.15;70.17;99113.23;25103;1315;3026809;-65
2022/08/29 00:43:48;;;;;;;47.50;15.20;;;;;;;22.99;70.39;99116.19;25019;1317;3053083;-63
2022/08/29 00:46:42;;;;;;;40.70;14.80;;;;;;;22.79;70.77;99118.23;25107;1318;3026483;-61
2022/08/29 00:49:28;;;;;;;42.40;14.20;;;;;;;22.62;71.21;99119.34;25070;1318;3049332;-64
2022/08/29 00:51:59;;;;;;;23.90;7.70;;;;;;;22.45;72.67;99121.59;25085;1315;3054955;-62
2022/08/29 00:54:28;;;;;;;28.80;10.40;;;;;;;22.90;71.91;99124.61;25028;1317;3027421;-62
2022/08/29 00:56:57;;;;;;;32.20;10.50;;;;;;;23.32;70.26;99118.77;25064;1318;3026518;-61
2022/08/29 00:59:31;;;;;;;36.10;13.40;;;;;;;23.36;69.49;99121.17;25039;1316;3054279;-64
2022/08/29 01:02:02;;;;;;;39.30;14.10;;;;;;;23.18;69.71;99118.46;25079;1318;3026625;-63
2022/08/29 01:04:31;;;;;;;35.50;14.10;;;;;;;22.90;70.30;99120.11;25033;1316;3027532;-63
2022/08/29 01:07:00;;;;;;;43.80;13.60;;;;;;;22.69;70.54;99118.59;24996;1317;3026585;-63
2022/08/29 01:09:30;;;;;;;35.80;14.30;;;;;;;22.55;70.60;99117.55;24998;1318;3054615;-65
2022/08/29 01:12:18;;;;;;;26.50;7.80;;;;;;;22.42;71.48;99116.73;24968;1317;3026683;-65
2022/08/29 01:14:52;;;;;;;28.30;8.60;;;;;;;22.98;70.23;99116.73;25019;1317;3054918;-62
2022/08/29 01:17:24;;;;;;;41.80;12.00;;;;;;;23.29;68.86;99113.64;25061;1318;3052152;-60
2022/08/29 01:20:06;;;;;;;52.10;14.70;;;;;;;23.23;69.09;99118.76;24981;1317;3026235;-64
2022/08/29 01:23:03;;;;;;;37.20;12.10;;;;;;;23.06;69.43;99111.50;25087;1316;3050088;-62
2022/08/29 01:25:35;;;;;;;39.00;13.00;;;;;;;22.83;69.96;99115.23;25039;1318;3054606;-64
2022/08/29 01:28:34;;;;;;;37.70;11.20;;;;;;;22.65;69.85;99115.67;25020;1317;3054612;-63
2022/08/29 01:31:05;;;;;;;36.10;10.30;;;;;;;22.44;71.62;99112.29;25051;1318;3069985;-63
2022/08/29 01:33:44;;;;;;;23.40;7.40;;;;;;;22.30;72.20;99115.41;25021;1318;3027380;-62
2022/08/29 01:36:18;;;;;;;27.80;8.50;;;;;;;22.90;70.84;99111.88;25072;1318;3055760;-63
2022/08/29 01:38:48;;;;;;;23.80;9.30;;;;;;;23.32;69.23;99108.70;25109;1318;3052674;-62
2022/08/29 01:41:19;;;;;;;27.80;8.30;;;;;;;23.33;69.01;99108.63;25106;1318;3026239;-63
2022/08/29 01:43:51;;;;;;;33.90;9.30;;;;;;;23.15;69.41;99106.30;25069;1318;3026698;-65
2022/08/29 01:46:24;;;;;;;24.90;9.50;;;;;;;22.86;70.34;99110.78;25043;1315;3027010;-63
2022/08/29 01:48:54;;;;;;;34.10;9.20;;;;;;;22.63;70.93;99111.85;25017;1318;3051785;-63
2022/08/29 01:51:24;;;;;;;26.70;8.70;;;;;;;22.44;71.28;99117.85;25063;1318;3026585;-60
2022/08/29 01:53:53;;;;;;;24.60;5.90;;;;;;;22.35;71.02;99117.04;25042;1318;3055819;-64
2022/08/29 01:56:24;;;;;;;21.00;6.30;;;;;;;22.80;70.59;99113.58;25023;1317;3026270;-63
2022/08/29 01:58:56;;;;;;;22.30;6.90;;;;;;;23.24;69.18;99112.38;25046;1316;3050040;-61
2022/08/29 02:01:26;;;;;;;18.20;7.50;;;;;;;23.25;68.65;99113.00;25040;1317;3027102;-62
2022/08/29 02:03:57;;;;;;;23.70;8.40;;;;;;;22.97;69.37;99110.79;25014;1317;3026420;-62
2022/08/29 02:06:26;;;;;;;26.80;7.40;;;;;;;22.74;69.80;99115.03;25018;1318;3027237;-63
2022/08/29 02:08:55;;;;;;;33.00;7.80;;;;;;;22.61;69.69;99114.60;25070;1316;3026661;-62
2022/08/29 02:11:24;;;;;;;25.00;7.80;;;;;;;22.39;70.49;99110.64;25022;1318;3053504;-64
2022/08/29 02:13:55;;;;;;;16.60;4.60;;;;;;;22.22;71.16;99112.64;25005;1318;3026378;-63
2022/08/29 02:16:26;;;;;;;30.60;6.30;;;;;;;22.63;70.35;99111.30;25010;1317;3029663;-62
2022/08/29 02:18:55;;;;;;;19.00;6.50;;;;;;;23.10;68.83;99109.23;25063;1318;3026562;-62
2022/08/29 02:21:25;;;;;;;16.00;5.90;;;;;;;23.12;68.21;99111.29;25010;1317;3026924;-64
2022/08/29 02:23:57;;;;;;;20.60;6.80;;;;;;;22.96;68.22;99117.07;25032;1318;3026825;-64
2022/08/29 02:26:26;;;;;;;24.30;6.90;;;;;;;22.75;68.92;99120.16;24996;1317;3026794;-62
2022/08/29 02:28:56;;;;;;;28.40;9.40;;;;;;;22.47;70.28;99124.65;25046;1317;3026601;-62
2022/08/29 02:31:25;;;;;;;29.50;10.60;;;;;;;22.12;71.71;99138.22;25060;1317;3058594;-63
2022/08/29 02:33:54;;;;;;;24.90;8.00;;;;;;;22.11;71.00;99139.27;25017;1318;3026149;-62
2022/08/29 02:36:23;;;;;;;32.30;10.90;;;;;;;22.63;70.68;99139.92;25060;1318;3054197;-65
2022/08/29 02:38:52;;;;;;;34.80;11.30;;;;;;;22.71;70.43;99137.27;25032;1315;3026725;-61
2022/08/29 02:41:21;;;;;;;34.30;13.50;;;;;;;22.51;70.71;99146.27;25062;1318;3054754;-61
2022/08/29 02:43:50;;;;;;;36.70;15.60;;;;;;;22.16;71.51;99148.27;25021;1318;3026778;-62
2022/08/29 02:46:19;;;;;;;39.10;17.90;;;;;;;21.86;72.26;99145.98;25062;1318;3051345;-63
2022/08/29 02:48:49;;;;;;;36.40;15.70;;;;;;;21.60;73.59;99149.54;25053;1318;3028287;-62
2022/08/29 02:51:23;;;;;;;23.40;9.90;;;;;;;21.40;74.97;99154.77;25010;1317;3026697;-63
2022/08/29 02:53:52;;;;;;;28.30;11.40;;;;;;;21.96;74.21;99158.69;25039;1317;3052078;-62
2022/08/29 02:56:22;;;;;;;30.50;10.90;;;;;;;22.50;72.05;99160.98;25060;1318;3026488;-64
2022/08/29 02:58:50;;;;;;;25.80;10.60;;;;;;;22.35;72.28;99165.96;25026;1318;3026445;-63
2022/08/29 03:01:17;;;;;;;25.80;10.60;;;;;;;22.10;73.06;99168.27;24199;1318;4808731;-61
2022/08/29 03:03:47;;;;;;;31.40;12.20;;;;;;;22.01;73.24;99177.49;25017;1318;3053086;-63
2022/08/29 03:06:17;;;;;;;21.20;10.20;;;;;;;22.13;73.94;99180.75;25011;1318;3026154;-63
2022/08/29 03:08:47;;;;;;;39.90;13.70;;;;;;;22.25;73.49;99182.78;25062;1317;3026872;-63
2022/08/29 03:11:17;;;;;;;38.20;17.00;;;;;;;22.14;73.37;99182.31;25017;1318;3026294;-63
2022/08/29 03:13:47;;;;;;;57.10;21.40;;;;;;;21.82;74.70;99184.39;24991;1317;3026817;-64
2022/08/29 03:16:17;;;;;;;44.00;19.70;;;;;;;21.60;75.23;99183.09;25052;1315;3026377;-62
2022/08/29 03:18:46;;;;;;;25.70;12.20;;;;;;;21.32;76.04;99187.77;25044;1318;3026612;-63
2022/08/29 03:21:19;;;;;;;35.30;16.30;;;;;;;21.59;75.73;99191.17;25038;1317;3026936;-63
2022/08/29 03:23:48;;;;;;;32.80;13.70;;;;;;;21.82;74.45;99189.58;25049;1315;3057779;-63
2022/08/29 03:26:18;;;;;;;28.00;12.60;;;;;;;21.95;73.67;99191.60;25054;1318;3027096;-62
2022/08/29 03:28:47;;;;;;;33.70;13.60;;;;;;;21.81;73.61;99190.79;25017;1318;3026638;-65
2022/08/29 03:31:16;;;;;;;31.90;13.00;;;;;;;21.67;73.88;99192.52;24991;1316;3056378;-65
2022/08/29 03:33:46;;;;;;;31.70;12.40;;;;;;;21.54;74.21;99196.60;24965;1316;3026874;-61
2022/08/29 03:36:15;;;;;;;19.00;7.70;;;;;;;21.41;74.93;99192.59;25081;1316;3026228;-63
2022/08/29 03:38:45;;;;;;;29.00;10.90;;;;;;;21.99;73.45;99194.55;25029;1317;3028120;-62
2022/08/29 03:41:21;;;;;;;43.10;10.80;;;;;;;22.36;71.98;99196.51;24964;1316;3026378;-64
2022/08/29 03:43:50;;;;;;;28.30;11.30;;;;;;;22.32;71.75;99196.79;25000;1317;3053575;-61
2022/08/29 03:46:19;;;;;;;37.20;10.50;;;;;;;22.17;71.89;99201.49;25060;1318;3027036;-63
2022/08/29 03:48:48;;;;;;;29.40;9.90;;;;;;;22.16;71.59;99200.70;25046;1317;3049379;-61
2022/08/29 03:51:17;;;;;;;27.20;9.30;;;;;;;22.07;70.97;99198.70;25081;1316;3027241;-63
2022/08/29 03:53:46;;;;;;;36.70;9.40;;;;;;;22.02;70.78;99197.16;25029;1318;3026641;-62
2022/08/29 03:56:15;;;;;;;22.90;6.10;;;;;;;22.02;70.54;99203.42;25059;1317;3051377;-65
2022/08/29 03:58:49;;;;;;;21.70;6.80;;;;;;;22.59;69.59;99207.09;25011;1316;3029532;-64
2022/08/29 04:01:21;;;;;;;26.90;7.10;;;;;;;23.14;67.71;99202.36;25013;1318;3059338;-63
2022/08/29 04:03:50;;;;;;;25.90;7.10;;;;;;;23.26;67.19;99203.64;25070;1316;3027588;-64
2022/08/29 04:06:19;;;;;;;22.70;7.70;;;;;;;23.20;66.98;99204.49;25032;1317;3026856;-63
2022/08/29 04:08:49;;;;;;;29.30;8.60;;;;;;;23.13;67.34;99210.88;25034;1318;3058392;-61
2022/08/29 04:11:18;;;;;;;29.30;8.50;;;;;;;23.03;67.33;99210.27;25061;1318;3026847;-61
2022/08/29 04:13:47;;;;;;;27.50;8.40;;;;;;;22.94;67.53;99212.49;25062;1316;3026910;-62
2022/08/29 04:16:19;;;;;;;24.20;7.20;;;;;;;22.88;67.53;99213.34;25030;1316;3026517;-61
2022/08/29 04:18:48;;;;;;;24.70;7.90;;;;;;;22.83;67.73;99216.52;25016;1318;3051824;-61
2022/08/29 04:21:17;;;;;;;15.70;4.80;;;;;;;22.81;67.88;99214.80;25071;1318;3026892;-62
2022/08/29 04:25:08;;;;;;;23.40;5.90;;;;;;;23.83;66.50;99211.46;31651;1309;3026515;-63
2022/08/29 04:27:38;;;;;;;30.80;11.70;;;;;;;24.41;64.97;99209.71;25156;1311;3026293;-63
2022/08/29 04:30:10;;;;;;;25.30;10.60;;;;;;;24.56;63.14;99209.35;25141;1310;3026407;-64
2022/08/29 04:32:39;;;;;;;22.20;8.50;;;;;;;24.27;63.73;99210.20;25159;1310;3030338;-64
2022/08/29 04:35:08;;;;;;;25.00;9.00;;;;;;;24.06;64.29;99210.88;25101;1310;3026123;-63
2022/08/29 04:37:35;;;;;;;25.00;9.00;;;;;;;23.91;64.37;99206.29;24586;1309;3054162;-64
2022/08/29 04:40:06;;;;;;;32.50;12.50;;;;;;;24.02;63.97;99205.70;25165;1309;3027007;-63
2022/08/29 04:42:38;;;;;;;33.50;10.30;;;;;;;24.16;63.57;99207.98;25180;1309;3026936;-63
2022/08/29 04:45:10;;;;;;;28.60;9.70;;;;;;;23.96;64.11;99213.23;25206;1308;3026714;-64
2022/08/29 04:47:41;;;;;;;24.60;9.40;;;;;;;23.82;64.75;99219.70;25138;1308;3027938;-64
2022/08/29 04:50:14;;;;;;;16.70;5.80;;;;;;;23.74;65.18;99216.83;25136;1309;3027327;-62
2022/08/29 04:52:43;;;;;;;26.20;7.70;;;;;;;24.30;64.60;99221.48;25204;1309;3026417;-64
2022/08/29 04:55:12;;;;;;;27.00;8.30;;;;;;;24.73;63.06;99218.73;25146;1307;3026337;-64
2022/08/29 04:57:42;;;;;;;24.80;9.30;;;;;;;24.80;62.63;99222.67;25129;1308;3068721;-61
2022/08/29 05:00:13;;;;;;;23.70;8.10;;;;;;;24.70;62.42;99219.80;25179;1309;3026798;-63
2022/08/29 05:02:42;;;;;;;20.20;8.60;;;;;;;24.55;62.61;99218.76;25144;1309;3049944;-63
2022/08/29 05:05:13;;;;;;;27.80;9.70;;;;;;;24.38;63.15;99223.28;25203;1308;3026703;-65
2022/08/29 05:07:44;;;;;;;30.90;10.80;;;;;;;24.25;63.66;99225.96;25202;1309;3052658;-61
2022/08/29 05:10:16;;;;;;;28.40;11.60;;;;;;;24.17;63.59;99227.66;25195;1309;3027469;-61
2022/08/29 05:12:45;;;;;;;30.80;11.90;;;;;;;24.07;63.68;99228.68;25156;1308;3026575;-64
2022/08/29 05:15:17;;;;;;;32.30;12.60;;;;;;;23.96;63.89;99231.63;25137;1308;3026590;-64
2022/08/29 05:17:47;;;;;;;41.60;15.40;;;;;;;23.89;64.06;99238.84;25226;1309;3027363;-63
2022/08/29 05:20:16;;;;;;;37.90;14.80;;;;;;;23.91;63.93;99240.84;25141;1308;3029090;-60
2022/08/29 05:22:45;;;;;;;29.60;13.00;;;;;;;23.87;64.74;99241.14;25170;1309;3048460;-62
2022/08/29 05:25:15;;;;;;;34.70;14.20;;;;;;;23.85;65.44;99241.69;25177;1309;3026347;-64
2022/08/29 05:27:44;;;;;;;23.00;10.10;;;;;;;23.87;65.47;99240.40;25148;1309;3026228;-63
2022/08/29 05:30:15;;;;;;;38.00;13.90;;;;;;;24.51;64.12;99241.40;25227;1309;3048871;-63
2022/08/29 05:32:44;;;;;;;43.30;16.00;;;;;;;25.12;62.59;99240.33;25188;1309;3027095;-64
2022/08/29 05:35:13;;;;;;;39.40;11.10;;;;;;;25.35;61.01;99243.41;25142;1308;3026685;-64
2022/08/29 05:37:42;;;;;;;31.30;12.30;;;;;;;25.34;59.51;99244.45;25155;1309;3051312;-64
2022/08/29 05:40:11;;;;;;;34.30;11.30;;;;;;;25.20;59.55;99249.25;25136;1306;3027884;-65
2022/08/29 05:42:41;;;;;;;27.70;10.00;;;;;;;25.05;59.70;99254.51;25119;1307;3070746;-64
2022/08/29 05:45:10;;;;;;;28.80;9.00;;;;;;;24.96;59.55;99257.69;25153;1309;3027532;-61
2022/08/29 05:47:39;;;;;;;26.90;9.70;;;;;;;24.77;58.02;99260.17;25211;1309;3026741;-62
2022/08/29 05:50:10;;;;;;;32.90;10.10;;;;;;;24.66;59.09;99253.92;25115;1307;3070819;-62
2022/08/29 05:52:39;;;;;;;26.40;9.50;;;;;;;24.58;58.54;99253.48;25190;1307;3027757;-63
2022/08/29 05:55:09;;;;;;;32.60;10.20;;;;;;;24.58;58.83;99253.62;25133;1306;3026165;-64
2022/08/29 05:57:38;;;;;;;29.50;8.30;;;;;;;24.65;58.43;99257.31;25118;1309;3069300;-63
2022/08/29 06:00:08;;;;;;;37.60;8.60;;;;;;;24.70;55.98;99255.63;25218;1307;3028113;-62
2022/08/29 06:02:41;;;;;;;28.70;8.20;;;;;;;24.75;55.33;99258.91;25139;1309;3027204;-66
2022/08/29 06:05:10;;;;;;;30.20;8.50;;;;;;;24.80;54.45;99255.88;25172;1309;3026274;-62
2022/08/29 06:07:39;;;;;;;19.70;7.60;;;;;;;24.88;54.44;99261.48;25189;1309;3048109;-63
2022/08/29 06:10:09;;;;;;;23.70;7.40;;;;;;;24.96;54.38;99258.97;25186;1309;3028230;-63
2022/08/29 06:12:39;;;;;;;29.20;9.00;;;;;;;25.08;54.40;99258.04;25152;1307;3026623;-62
2022/08/29 06:15:08;;;;;;;21.30;8.00;;;;;;;25.19;54.41;99259.05;25164;1310;3026779;-63
2022/08/29 06:17:37;;;;;;;32.40;8.80;;;;;;;25.26;54.14;99258.05;25161;1309;3054390;-64
2022/08/29 06:20:08;;;;;;;36.80;9.10;;;;;;;25.34;54.24;99254.66;25119;1309;3026612;-64
2022/08/29 06:22:38;;;;;;;30.30;9.10;;;;;;;25.40;54.19;99259.97;25171;1309;3051651;-64
2022/08/29 06:25:07;;;;;;;31.30;8.30;;;;;;;25.50;54.28;99264.63;25151;1309;3026330;-65
2022/08/29 06:27:36;;;;;;;28.60;9.20;;;;;;;25.54;53.70;99262.84;25171;1309;3070702;-63
2022/08/29 06:30:06;;;;;;;30.70;9.80;;;;;;;25.55;53.24;99267.73;25198;1309;3026341;-64
2022/08/29 06:32:36;;;;;;;28.80;11.60;;;;;;;25.59;53.28;99267.39;25256;1309;3026409;-65
2022/08/29 06:35:05;;;;;;;31.70;9.80;;;;;;;25.65;52.92;99266.84;25180;1309;3026615;-63
2022/08/29 06:37:34;;;;;;;27.30;9.50;;;;;;;25.73;52.64;99268.02;25128;1309;3048704;-63
2022/08/29 06:40:04;;;;;;;37.30;8.90;;;;;;;25.82;52.77;99271.72;25193;1309;3026621;-63
2022/08/29 06:42:33;;;;;;;28.10;9.10;;;;;;;25.89;52.53;99267.05;25190;1309;3028222;-63
2022/08/29 06:45:05;;;;;;;25.60;8.60;;;;;;;25.95;51.09;99266.30;25161;1309;3027655;-62
2022/08/29 06:47:35;;;;;;;28.30;8.60;;;;;;;26.03;51.36;99273.61;25138;1309;3026686;-63
2022/08/29 06:50:05;;;;;;;19.80;8.00;;;;;;;26.15;51.53;99275.04;25170;1309;3026705;-63
2022/08/29 06:52:34;;;;;;;31.50;10.40;;;;;;;26.27;51.05;99280.24;25136;1309;3055620;-63
2022/08/29 06:55:04;;;;;;;28.90;9.60;;;;;;;26.35;51.23;99281.52;25213;1309;3026545;-65
2022/08/29 06:57:33;;;;;;;30.10;9.60;;;;;;;26.46;51.18;99285.20;25206;1309;3052051;-63
2022/08/29 07:00:07;;;;;;;23.40;10.30;;;;;;;26.56;50.85;99284.88;25150;1309;3026528;-64
2022/08/29 07:02:37;;;;;;;33.90;10.50;;;;;;;26.66;50.83;99287.64;25119;1309;3055148;-63
2022/08/29 07:05:06;;;;;;;27.50;9.90;;;;;;;26.74;50.95;99285.34;25183;1309;3026812;-61
2022/08/29 07:07:39;;;;;;;35.20;11.70;;;;;;;26.82;50.92;99287.60;25231;1309;3049686;-63
2022/08/29 07:10:11;;;;;;;31.00;10.70;;;;;;;26.87;50.36;99286.06;25119;1309;3026879;-63
2022/08/29 07:12:41;;;;;;;28.80;11.10;;;;;;;26.92;51.07;99289.03;25157;1309;3026446;-64
2022/08/29 07:15:10;;;;;;;27.10;11.20;;;;;;;27.05;52.61;99287.98;25185;1308;3026933;-65
2022/08/29 07:17:39;;;;;;;29.70;13.10;;;;;;;27.12;54.38;99295.00;25182;1312;3053301;-64
2022/08/29 07:20:09;;;;;;;32.40;12.50;;;;;;;27.18;55.39;99299.90;25146;1309;3026722;-64
2022/08/29 07:22:38;;;;;;;30.50;12.70;;;;;;;27.26;55.27;99303.42;25156;1309;3048907;-64
2022/08/29 07:25:09;;;;;;;34.20;12.90;;;;;;;27.36;54.97;99308.82;25157;1308;3026224;-64
2022/08/29 07:27:38;;;;;;;34.60;13.30;;;;;;;27.44;54.88;99311.82;25152;1309;3068439;-65
2022/08/29 07:30:08;;;;;;;38.20;14.60;;;;;;;27.49;54.33;99309.44;25205;1309;3028354;-66
2022/08/29 07:32:37;;;;;;;34.50;14.40;;;;;;;27.46;53.30;99310.11;25197;1307;3052879;-67
2022/08/29 07:35:06;;;;;;;35.70;12.90;;;;;;;27.53;52.77;99308.54;25148;1309;3026390;-65
2022/08/29 07:37:37;;;;;;;33.10;13.50;;;;;;;27.60;52.08;99306.66;25230;1309;3054043;-66
2022/08/29 07:40:08;;;;;;;41.00;13.50;;;;;;;27.64;52.52;99304.92;25199;1309;3026571;-65
2022/08/29 07:42:38;;;;;;;34.40;13.10;;;;;;;27.71;52.42;99302.46;25170;1309;3026627;-63
2022/08/29 07:45:08;;;;;;;32.50;12.80;;;;;;;27.84;52.88;99301.79;25190;1309;3026693;-64
2022/08/29 07:47:38;;;;;;;31.90;12.40;;;;;;;27.90;52.85;99306.27;25213;1309;3050502;-61
2022/08/29 07:50:09;;;;;;;40.30;13.40;;;;;;;27.93;52.41;99313.48;25205;1309;3027510;-64
2022/08/29 07:52:38;;;;;;;35.50;11.40;;;;;;;28.04;51.94;99313.31;25156;1309;3026471;-63
2022/08/29 07:55:09;;;;;;;29.50;12.50;;;;;;;28.14;51.16;99315.80;25192;1309;3026187;-64
2022/08/29 07:57:38;;;;;;;36.40;11.70;;;;;;;28.23;50.83;99310.79;25162;1309;3068396;-64
2022/08/29 08:00:09;;;;;;;33.10;11.90;;;;;;;28.28;50.24;99309.31;25123;1308;3026294;-65
2022/08/29 08:02:42;;;;;;;33.80;12.10;;;;;;;28.27;49.79;99306.95;25168;1309;3050088;-63
2022/08/29 08:05:11;;;;;;;30.90;11.30;;;;;;;28.30;48.79;99306.36;25147;1309;3026108;-63
2022/08/29 08:07:41;;;;;;;31.50;11.40;;;;;;;28.36;49.14;99309.37;25153;1309;3054787;-63
2022/08/29 08:10:10;;;;;;;29.20;11.20;;;;;;;28.45;48.79;99306.59;25208;1309;3029760;-64
2022/08/29 08:12:40;;;;;;;27.00;9.70;;;;;;;28.54;48.93;99308.46;25207;1308;3027349;-63
2022/08/29 08:15:11;;;;;;;28.80;10.80;;;;;;;28.63;48.87;99312.47;25174;1309;3026432;-63
2022/08/29 08:17:41;;;;;;;30.70;10.70;;;;;;;28.73;48.57;99311.41;25198;1312;3026548;-64
2022/08/29 08:20:11;;;;;;;31.80;10.40;;;;;;;28.79;47.94;99313.04;25200;1309;3026009;-63
2022/08/29 08:22:40;;;;;;;31.20;10.80;;;;;;;28.91;47.80;99315.13;25228;1309;3048851;-65
2022/08/29 08:25:09;;;;;;;26.10;10.50;;;;;;;29.01;47.47;99313.58;25177;1309;3026691;-63
2022/08/29 08:27:38;;;;;;;33.00;9.80;;;;;;;29.07;47.28;99317.33;25160;1309;3026600;-62
2022/08/29 08:30:09;;;;;;;23.30;10.10;;;;;;;29.11;46.80;99319.02;25131;1309;3026492;-63
2022/08/29 08:32:39;;;;;;;25.00;10.20;;;;;;;29.21;46.77;99324.67;25136;1309;3026927;-63
2022/08/29 08:35:10;;;;;;;32.00;10.40;;;;;;;29.35;46.32;99323.46;25133;1309;3026528;-64
2022/08/29 08:37:40;;;;;;;31.40;10.50;;;;;;;29.41;46.40;99323.66;25231;1309;3027898;-64
2022/08/29 08:40:15;;;;;;;32.60;9.10;;;;;;;29.49;46.30;99325.67;25210;1309;3026575;-58
2022/08/29 08:42:44;;;;;;;25.30;9.10;;;;;;;29.60;45.31;99319.72;25144;1309;3052633;-64
2022/08/29 08:45:21;;;;;;;26.00;9.50;;;;;;;29.68;44.16;99317.15;25261;1309;3026655;-65
2022/08/29 08:47:59;;;;;;;35.70;10.50;;;;;;;29.78;44.17;99317.52;25209;1309;3052392;-63
2022/08/29 08:50:46;;;;;;;30.40;8.90;;;;;;;29.89;44.00;99315.82;25126;1312;3052946;-65
2022/08/29 08:53:22;;;;;;;32.30;10.60;;;;;;;30.02;43.01;99315.73;25230;1307;3051936;-65
2022/08/29 08:55:53;;;;;;;29.00;9.00;;;;;;;30.08;42.41;99315.33;25107;1309;3068399;-63
2022/08/29 08:58:39;;;;;;;28.90;9.30;;;;;;;30.13;42.49;99317.36;25231;1311;3026245;-63
2022/08/29 09:01:21;;;;;;;21.30;10.00;;;;;;;30.15;41.72;99314.66;25134;1312;3055325;-63
2022/08/29 09:04:16;;;;;;;30.60;9.90;;;;;;;30.23;41.60;99315.55;25155;1309;3055317;-63
2022/08/29 09:06:53;;;;;;;25.60;10.00;;;;;;;30.33;41.70;99314.10;25177;1309;3055989;-62
2022/08/29 09:10:05;;;;;;;22.40;9.80;;;;;;;30.42;41.41;99316.16;25089;1312;3052370;-66
2022/08/29 09:12:50;;;;;;;25.40;10.10;;;;;;;30.51;41.09;99316.75;25126;1309;3055495;-64
2022/08/29 09:15:22;;;;;;;29.60;9.80;;;;;;;30.58;40.99;99314.86;25188;1309;3052721;-63
2022/08/29 09:17:56;;;;;;;25.10;9.70;;;;;;;30.59;40.26;99314.51;25153;1312;3026371;-65
2022/08/29 09:20:30;;;;;;;21.30;9.70;;;;;;;30.62;40.20;99311.02;25074;1310;3051394;-64
2022/08/29 09:23:01;;;;;;;24.40;9.70;;;;;;;30.69;39.85;99308.64;25157;1312;3054277;-64
2022/08/29 09:25:34;;;;;;;19.20;8.60;;;;;;;30.76;39.99;99307.78;25132;1308;3027072;-63
2022/08/29 09:28:05;;;;;;;22.20;8.40;;;;;;;30.85;40.42;99304.12;25250;1309;3027437;-62
2022/08/29 09:30:35;;;;;;;32.90;9.70;;;;;;;30.85;39.58;99305.77;25170;1312;3026365;-64
2022/08/29 09:33:09;;;;;;;30.20;10.60;;;;;;;30.77;38.90;99301.48;25100;1309;3026782;-66
2022/08/29 09:35:46;;;;;;;27.70;10.30;;;;;;;30.81;38.83;99298.13;25134;1309;3053921;-68
2022/08/29 09:38:15;;;;;;;20.70;8.70;;;;;;;31.00;39.18;99295.98;25213;1310;3069157;-65
2022/08/29 09:41:02;;;;;;;21.60;8.50;;;;;;;31.16;38.74;99299.32;25127;1309;3026423;-64
2022/08/29 09:43:37;;;;;;;24.00;8.90;;;;;;;31.27;38.08;99294.55;25194;1312;3050969;-64
2022/08/29 09:46:09;;;;;;;22.60;8.40;;;;;;;31.37;38.00;99295.73;25115;1309;3068728;-64
2022/08/29 09:48:44;;;;;;;25.20;9.40;;;;;;;31.44;37.83;99299.16;25150;1309;3026333;-65
2022/08/29 09:51:27;;;;;;;20.90;9.00;;;;;;;31.53;38.19;99299.69;25198;1309;3052597;-66
2022/08/29 09:54:17;;;;;;;26.00;8.70;;;;;;;31.62;37.21;99299.35;25175;1309;3052459;-65
2022/08/29 09:57:07;;;;;;;18.80;8.00;;;;;;;31.69;36.71;99298.80;25082;1310;3059222;-66
2022/08/29 10:00:04;;;;;;;23.50;8.30;;;;;;;31.77;36.76;99291.48;25162;1308;3052246;-65
2022/08/29 10:02:44;;;;;;;25.20;7.80;;;;;;;31.79;36.15;99288.14;25169;1309;3053663;-67
2022/08/29 10:05:34;;;;;;;22.40;7.40;;;;;;;31.84;36.07;99283.23;25142;1308;3051386;-67
2022/08/29 10:08:28;;;;;;;20.50;6.90;;;;;;;31.89;35.54;99288.38;25146;1308;3069611;-64
2022/08/29 10:10:59;;;;;;;21.70;7.40;;;;;;;32.01;34.98;99283.14;25184;1309;3049445;-64
2022/08/29 10:13:53;;;;;;;20.60;7.40;;;;;;;32.09;35.17;99283.58;25214;1309;3026018;-65
2022/08/29 10:16:32;;;;;;;21.50;7.90;;;;;;;32.16;35.29;99283.70;25173;1309;3052823;-62
2022/08/29 10:19:03;;;;;;;19.10;7.30;;;;;;;32.22;34.41;99280.47;25189;1309;3058367;-63
2022/08/29 10:21:46;;;;;;;19.80;7.00;;;;;;;32.26;34.22;99279.83;25150;1309;3027325;-65
2022/08/29 10:24:39;;;;;;;20.40;7.40;;;;;;;32.33;33.87;99278.02;25116;1309;3056517;-64
2022/08/29 10:27:20;;;;;;;16.80;7.00;;;;;;;32.37;33.59;99280.12;25237;1309;3052552;-64
2022/08/29 10:30:06;;;;;;;19.40;7.30;;;;;;;32.39;33.55;99277.60;25122;1312;3069173;-67
2022/08/29 10:33:08;;;;;;;20.70;6.60;;;;;;;32.46;33.18;99276.83;25195;1309;3048906;-66
2022/08/29 10:36:05;;;;;;;22.30;7.80;;;;;;;32.49;32.60;99271.67;25130;1308;3055403;-68
2022/08/29 10:38:56;;;;;;;26.10;7.20;;;;;;;32.62;33.03;99267.95;25142;1309;3055721;-65
2022/08/29 10:41:44;;;;;;;22.10;7.20;;;;;;;32.75;33.45;99271.79;25128;1309;3054901;-64
2022/08/29 10:44:19;;;;;;;26.30;7.00;;;;;;;32.89;33.32;99270.64;25103;1309;3052253;-66
2022/08/29 10:47:09;;;;;;;30.20;7.30;;;;;;;32.91;32.68;99273.08;25202;1308;3055730;-65
2022/08/29 10:49:52;;;;;;;19.20;6.70;;;;;;;33.01;32.34;99274.81;25171;1311;3054689;-63
2022/08/29 10:52:40;;;;;;;21.10;6.20;;;;;;;33.15;32.02;99280.21;25161;1311;3070149;-65
2022/08/29 10:55:27;;;;;;;16.30;6.60;;;;;;;33.21;31.60;99278.42;25106;1310;3051975;-64
2022/08/29 10:58:03;;;;;;;18.70;6.60;;;;;;;33.21;31.40;99275.88;25189;1308;3052118;-67
2022/08/29 11:00:43;;;;;;;19.70;7.30;;;;;;;33.25;31.28;99279.42;25167;1308;3052185;-62
2022/08/29 11:03:21;;;;;;;19.00;7.10;;;;;;;33.28;31.53;99275.08;25977;1310;3057223;-62
2022/08/29 11:06:00;;;;;;;21.80;6.80;;;;;;;33.14;31.62;99274.92;25121;1309;3051040;-65
2022/08/29 11:08:51;;;;;;;27.60;7.40;;;;;;;33.01;31.85;99270.35;25484;1309;3053299;-63
2022/08/29 11:11:20;;;;;;;21.60;7.00;;;;;;;32.97;31.83;99272.13;25122;1309;3051505;-64
2022/08/29 11:13:58;;;;;;;27.50;6.90;;;;;;;32.90;31.64;99266.40;25112;1309;3026301;-63
2022/08/29 11:16:37;;;;;;;23.00;7.20;;;;;;;33.01;31.49;99265.56;25112;1310;3049341;-63
2022/08/29 11:19:28;;;;;;;23.30;6.40;;;;;;;33.00;31.55;99266.85;25144;1309;3055400;-66
2022/08/29 11:22:16;;;;;;;19.70;7.10;;;;;;;33.04;31.06;99272.20;25139;1312;3054357;-63
2022/08/29 11:24:48;;;;;;;26.80;8.10;;;;;;;33.04;30.67;99270.08;25155;1312;3058918;-63
2022/08/29 11:27:25;;;;;;;16.00;7.10;;;;;;;33.23;31.04;99262.23;25134;1312;3026460;-65
2022/08/29 11:30:09;;;;;;;18.80;7.20;;;;;;;33.46;31.19;99252.23;25168;1312;3053820;-63
2022/08/29 11:32:42;;;;;;;23.50;7.50;;;;;;;33.58;30.73;99246.29;25058;1313;3051410;-64